createdAt,value
2018-07-08T00:00:05.422Z,3.30
2018-07-08T00:03:08.494Z,3.33
2018-07-08T00:06:11.562Z,3.70
2018-07-08T00:09:14.657Z,3.20
2018-07-08T00:12:17.794Z,3.30
2018-07-08T00:15:20.847Z,4.20
2018-07-08T00:18:24.718Z,3.23
2018-07-08T00:21:27.830Z,3.13
2018-07-08T00:24:31.006Z,3.17
2018-07-08T00:27:34.233Z,3.47
2018-07-08T00:30:37.421Z,3.20
2018-07-08T00:33:40.610Z,3.27
2018-07-08T00:36:43.793Z,3.90
2018-07-08T00:39:46.998Z,3.77
2018-07-08T00:42:50.178Z,3.90
2018-07-08T00:45:53.432Z,3.80
2018-07-08T00:48:56.625Z,2.97
2018-07-08T00:51:59.851Z,3.53
2018-07-08T00:55:03.102Z,3.23
2018-07-08T00:58:06.800Z,3.00
2018-07-08T01:01:10.074Z,3.13
2018-07-08T01:04:13.266Z,3.00
2018-07-08T01:07:16.487Z,2.90
2018-07-08T01:10:19.958Z,3.00
2018-07-08T01:13:23.327Z,3.03
2018-07-08T01:16:26.534Z,2.93
2018-07-08T01:19:30.982Z,3.33
2018-07-08T01:22:34.297Z,2.90
2018-07-08T01:26:14.169Z,2.77
2018-07-08T01:29:17.429Z,2.90
2018-07-08T01:32:20.390Z,3.00
2018-07-08T01:35:23.561Z,3.20
2018-07-08T01:38:26.758Z,3.27
2018-07-08T01:41:30.068Z,3.20
2018-07-08T01:44:33.316Z,3.53
2018-07-08T01:47:36.474Z,3.70
2018-07-08T01:50:39.670Z,3.33
2018-07-08T01:53:42.943Z,3.87
2018-07-08T01:56:46.129Z,3.80
2018-07-08T01:59:50.383Z,3.50
2018-07-08T02:02:53.566Z,3.97
2018-07-08T02:05:56.874Z,3.90
2018-07-08T02:09:00.163Z,4.10
2018-07-08T02:12:03.430Z,4.20
2018-07-08T02:15:06.627Z,4.70
2018-07-08T02:18:09.851Z,3.80
2018-07-08T02:21:13.229Z,4.30
2018-07-08T02:24:16.431Z,3.83
2018-07-08T02:27:19.688Z,4.80
2018-07-08T02:30:23.043Z,4.60
2018-07-08T02:33:26.060Z,4.40
2018-07-08T02:36:29.319Z,4.37
2018-07-08T02:39:32.852Z,4.90
2018-07-08T02:42:36.043Z,4.50
2018-07-08T02:45:39.330Z,4.60
2018-07-08T02:48:42.523Z,4.60
2018-07-08T02:51:45.823Z,4.07
2018-07-08T02:54:49.069Z,4.63
2018-07-08T02:57:52.277Z,4.13
2018-07-08T03:00:55.413Z,4.93
2018-07-08T03:03:58.661Z,5.20
2018-07-08T03:07:01.891Z,4.93
2018-07-08T03:10:04.882Z,4.87
2018-07-08T03:13:07.910Z,4.30
2018-07-08T03:16:11.138Z,5.00
2018-07-08T03:19:14.486Z,4.37
2018-07-08T03:22:17.754Z,4.00
2018-07-08T03:25:20.924Z,3.73
2018-07-08T03:28:24.015Z,4.13
2018-07-08T03:31:27.077Z,3.97
2018-07-08T03:34:30.165Z,4.10
2018-07-08T03:37:33.250Z,3.70
2018-07-08T03:40:36.312Z,4.80
2018-07-08T03:43:39.396Z,4.17
2018-07-08T03:46:42.246Z,3.63
2018-07-08T03:49:45.325Z,4.63
2018-07-08T03:52:48.427Z,4.00
2018-07-08T03:55:51.499Z,4.30
2018-07-08T03:58:54.597Z,4.80
2018-07-08T04:01:57.651Z,4.77
2018-07-08T04:05:00.733Z,4.60
2018-07-08T04:08:03.832Z,5.40
2018-07-08T04:11:07.149Z,5.13
2018-07-08T04:14:10.257Z,5.17
2018-07-08T04:17:13.330Z,4.97
2018-07-08T04:20:16.406Z,6.03
2018-07-08T04:23:19.506Z,5.43
2018-07-08T04:26:29.717Z,5.50
2018-07-08T04:29:32.777Z,5.77
2018-07-08T04:32:35.850Z,5.13
2018-07-08T04:35:38.966Z,5.37
2018-07-08T04:38:42.057Z,5.37
2018-07-08T04:41:45.130Z,6.00
2018-07-08T04:44:48.225Z,5.13
2018-07-08T04:47:51.329Z,5.83
2018-07-08T04:50:54.405Z,4.87
2018-07-08T04:53:57.505Z,5.53
2018-07-08T04:57:00.581Z,5.00
2018-07-08T05:00:03.873Z,5.37
2018-07-08T05:03:06.941Z,4.57
2018-07-08T05:06:10.012Z,5.37
2018-07-08T05:09:13.073Z,5.20
2018-07-08T05:12:16.181Z,5.77
2018-07-08T05:15:19.278Z,5.33
2018-07-08T05:18:22.354Z,5.77
2018-07-08T05:21:25.414Z,5.30
2018-07-08T05:24:28.506Z,5.20
2018-07-08T05:27:31.557Z,4.60
2018-07-08T05:30:34.640Z,4.63
2018-07-08T05:33:37.721Z,4.83
2018-07-08T05:36:40.853Z,5.03
2018-07-08T05:39:43.970Z,4.40
2018-07-08T05:42:47.038Z,4.80
2018-07-08T05:45:49.917Z,6.60
2018-07-08T05:48:52.997Z,5.20
2018-07-08T05:51:56.073Z,5.60
2018-07-08T05:54:59.125Z,4.73
2018-07-08T05:58:02.201Z,5.10
2018-07-08T06:01:05.061Z,4.30
2018-07-08T06:04:08.180Z,3.97
2018-07-08T06:07:11.253Z,3.97
2018-07-08T06:10:14.347Z,3.80
2018-07-08T06:13:17.200Z,3.40
2018-07-08T06:16:20.389Z,4.40
2018-07-08T06:19:23.470Z,3.80
2018-07-08T06:22:26.557Z,3.83
2018-07-08T06:25:29.621Z,3.83
2018-07-08T06:28:32.713Z,3.30
2018-07-08T06:31:35.639Z,3.10
2018-07-08T06:34:38.808Z,3.40
2018-07-08T06:37:41.882Z,3.13
2018-07-08T06:40:44.757Z,3.50
2018-07-08T06:43:47.801Z,3.67
2018-07-08T06:46:50.877Z,3.27
2018-07-08T06:49:53.949Z,3.30
2018-07-08T06:52:58.932Z,3.23
2018-07-08T06:56:02.045Z,3.13
2018-07-08T06:59:05.119Z,3.10
2018-07-08T07:02:08.428Z,3.23
2018-07-08T07:05:11.512Z,2.80
2018-07-08T07:08:14.598Z,2.70
2018-07-08T07:11:17.969Z,2.97
2018-07-08T07:14:21.053Z,2.50
2018-07-08T07:17:24.124Z,2.53
2018-07-08T07:20:26.973Z,2.30
2018-07-08T07:23:30.042Z,2.63
2018-07-08T07:26:33.266Z,5.43
2018-07-08T07:29:36.329Z,2.50
2018-07-08T07:32:39.421Z,2.10
2018-07-08T07:35:42.499Z,2.30
2018-07-08T07:38:46.566Z,2.50
2018-07-08T07:41:49.654Z,2.30
2018-07-08T07:44:52.852Z,1.90
2018-07-08T07:47:55.917Z,2.13
2018-07-08T07:51:21.618Z,2.10
2018-07-08T07:54:24.608Z,2.23
2018-07-08T07:57:27.686Z,2.07
2018-07-08T08:00:30.741Z,2.27
2018-07-08T08:03:33.810Z,2.07
2018-07-08T08:06:36.879Z,2.07
2018-07-08T08:12:49.468Z,1.87
2018-07-08T08:15:52.329Z,2.00
2018-07-08T08:18:55.421Z,1.80
2018-07-08T08:21:58.494Z,1.83
2018-07-08T08:25:01.569Z,2.00
2018-07-08T08:28:04.631Z,2.00
2018-07-08T08:31:14.838Z,2.17
2018-07-08T08:34:51.934Z,1.87
2018-07-08T08:37:56.060Z,1.93
2018-07-08T08:40:59.112Z,1.73
2018-07-08T08:44:02.190Z,2.20
2018-07-08T08:47:05.482Z,1.83
2018-07-08T08:50:09.057Z,1.80
2018-07-08T08:53:11.936Z,2.17
2018-07-08T08:56:14.789Z,2.00
2018-07-08T08:59:17.866Z,1.57
2018-07-08T09:02:20.941Z,1.90
2018-07-08T09:05:24.014Z,1.80
2018-07-08T09:08:27.085Z,1.67
2018-07-08T09:11:30.142Z,1.60
2018-07-08T09:14:33.204Z,2.00
2018-07-08T09:17:36.264Z,2.30
2018-07-08T09:20:39.105Z,2.10
2018-07-08T09:23:42.279Z,1.83
2018-07-08T09:26:45.315Z,2.17
2018-07-08T09:29:48.386Z,2.27
2018-07-08T09:32:51.449Z,2.07
2018-07-08T09:35:54.502Z,2.20
2018-07-08T09:38:57.522Z,1.70
2018-07-08T09:42:00.413Z,2.03
2018-07-08T09:45:03.498Z,1.77
2018-07-08T09:48:06.593Z,2.53
2018-07-08T09:51:09.644Z,2.50
2018-07-08T09:54:18.148Z,2.53
2018-07-08T09:57:21.206Z,2.53
2018-07-08T10:00:24.285Z,2.80
2018-07-08T10:03:27.340Z,2.90
2018-07-08T10:06:30.548Z,2.50
2018-07-08T10:09:33.396Z,3.00
2018-07-08T10:12:36.492Z,2.47
2018-07-08T10:15:39.565Z,2.73
2018-07-08T10:18:43.725Z,2.77
2018-07-08T10:21:46.789Z,2.80
2018-07-08T10:24:49.869Z,3.00
2018-07-08T10:28:13.761Z,2.93
2018-07-08T10:31:16.830Z,3.20
2018-07-08T10:34:20.141Z,2.63
2018-07-08T10:37:23.197Z,2.63
2018-07-08T10:40:26.281Z,3.03
2018-07-08T10:43:29.393Z,3.33
2018-07-08T10:46:32.433Z,2.87
2018-07-08T10:49:35.312Z,3.20
2018-07-08T10:52:38.378Z,3.27
2018-07-08T10:55:41.429Z,3.60
2018-07-08T10:58:44.505Z,3.00
2018-07-08T11:01:47.661Z,3.20
2018-07-08T11:04:50.655Z,3.20
2018-07-08T11:07:53.925Z,3.60
2018-07-08T11:10:57.006Z,3.67
2018-07-08T11:14:00.183Z,3.77
2018-07-08T11:17:03.310Z,3.47
2018-07-08T11:20:06.502Z,7.03
2018-07-08T11:23:09.686Z,3.37
2018-07-08T11:26:13.185Z,3.90
2018-07-08T11:29:16.379Z,3.90
2018-07-08T11:32:19.634Z,4.57
2018-07-08T11:35:22.653Z,3.90
2018-07-08T11:38:25.890Z,3.20
2018-07-08T11:41:29.162Z,3.43
2018-07-08T11:44:32.368Z,3.40
2018-07-08T11:47:35.665Z,3.70
2018-07-08T11:50:40.150Z,4.13
2018-07-08T11:53:43.503Z,3.80
2018-07-08T11:56:46.785Z,3.40
2018-07-08T11:59:49.966Z,3.23
2018-07-08T12:02:53.282Z,4.40
2018-07-08T12:05:56.275Z,3.50
2018-07-08T12:08:59.703Z,3.97
2018-07-08T12:12:02.843Z,3.90
2018-07-08T12:15:06.044Z,3.50
2018-07-08T12:18:09.369Z,3.70
2018-07-08T12:21:12.613Z,3.80
2018-07-08T12:24:15.858Z,3.63
2018-07-08T12:27:19.040Z,3.70
2018-07-08T12:30:22.337Z,3.80
2018-07-08T12:33:25.595Z,3.13
2018-07-08T12:36:28.753Z,4.00
2018-07-08T12:39:31.930Z,3.87
2018-07-08T12:42:35.194Z,3.40
2018-07-08T12:45:38.501Z,3.40
2018-07-08T12:48:41.731Z,3.50
2018-07-08T12:51:44.693Z,3.40
2018-07-08T12:54:47.993Z,3.60
2018-07-08T12:57:51.218Z,3.10
2018-07-08T13:00:54.466Z,3.30
2018-07-08T13:03:57.640Z,2.87
2018-07-08T13:07:00.825Z,3.10
2018-07-08T13:10:04.019Z,3.47
2018-07-08T13:13:07.286Z,2.80
2018-07-08T13:16:10.357Z,3.40
2018-07-08T13:19:13.620Z,3.60
2018-07-08T13:22:16.945Z,3.47
2018-07-08T13:25:20.211Z,3.40
2018-07-08T13:28:23.393Z,3.23
2018-07-08T13:31:26.577Z,3.17
2018-07-08T13:34:29.866Z,3.53
2018-07-08T13:37:33.074Z,2.87
2018-07-08T13:40:36.283Z,3.30
2018-07-08T13:43:40.488Z,3.17
2018-07-08T13:46:43.690Z,2.93
2018-07-08T13:49:47.013Z,3.70
2018-07-08T13:52:50.080Z,4.20
2018-07-08T13:55:53.298Z,3.70
2018-07-08T13:58:56.430Z,3.70
2018-07-08T14:01:59.690Z,3.13
2018-07-08T14:05:02.847Z,3.70
2018-07-08T14:08:06.169Z,3.33
2018-07-08T14:11:09.407Z,3.43
2018-07-08T14:14:12.673Z,3.70
2018-07-08T14:17:15.847Z,4.00
2018-07-08T14:20:19.214Z,3.50
2018-07-08T14:23:22.321Z,3.37
2018-07-08T14:26:25.547Z,3.10
2018-07-08T14:29:28.877Z,3.73
2018-07-08T14:32:32.102Z,3.70
2018-07-08T14:35:35.338Z,3.43
2018-07-08T14:38:38.533Z,3.90
2018-07-08T14:41:41.865Z,3.77
2018-07-08T14:44:44.891Z,4.20
2018-07-08T14:48:02.170Z,4.10
2018-07-08T14:51:05.267Z,3.67
2018-07-08T14:54:08.337Z,3.57
2018-07-08T14:57:11.235Z,4.13
2018-07-08T15:00:14.332Z,3.70
2018-07-08T15:03:17.392Z,4.13
2018-07-08T15:06:20.519Z,3.97
2018-07-08T15:09:23.569Z,3.30
2018-07-08T15:12:26.653Z,3.20
2018-07-08T15:15:29.762Z,3.73
2018-07-08T15:18:32.841Z,4.47
2018-07-08T15:21:36.045Z,5.00
2018-07-08T15:24:39.115Z,3.50
2018-07-08T15:27:42.213Z,4.27
2018-07-08T15:30:45.302Z,3.87
2018-07-08T15:33:48.597Z,3.90
2018-07-08T15:36:51.709Z,3.17
2018-07-08T15:39:54.801Z,3.10
2018-07-08T15:42:57.886Z,3.60
2018-07-08T15:46:00.976Z,2.93
2018-07-08T15:49:04.042Z,3.17
2018-07-08T15:52:07.138Z,3.33
2018-07-08T15:55:10.270Z,3.37
2018-07-08T15:58:13.199Z,2.80
2018-07-08T16:01:16.357Z,3.13
2018-07-08T16:04:19.578Z,2.70
2018-07-08T16:07:22.812Z,2.47
2018-07-08T16:10:26.031Z,2.80
2018-07-08T16:13:29.033Z,2.63
2018-07-08T16:16:32.326Z,2.83
2018-07-08T16:19:35.545Z,2.67
2018-07-08T16:22:38.795Z,2.53
2018-07-08T16:25:42.027Z,3.00
2018-07-08T16:28:45.185Z,2.50
2018-07-08T16:31:48.403Z,2.57
2018-07-08T16:34:51.560Z,2.67
2018-07-08T16:37:54.630Z,2.77
2018-07-08T16:40:57.725Z,2.93
2018-07-08T16:44:01.010Z,2.50
2018-07-08T16:47:04.102Z,2.50
2018-07-08T16:50:07.174Z,2.60
2018-07-08T16:53:10.268Z,2.77
2018-07-08T16:56:13.387Z,2.30
2018-07-08T16:59:16.493Z,2.20
2018-07-08T17:02:19.743Z,2.90
2018-07-08T17:05:22.664Z,4.03
2018-07-08T17:08:25.783Z,2.30
2018-07-08T17:11:29.265Z,2.60
2018-07-08T17:14:32.358Z,2.17
2018-07-08T17:17:35.443Z,2.30
2018-07-08T17:20:38.518Z,3.13
2018-07-08T17:23:41.668Z,2.40
2018-07-08T17:26:44.797Z,2.40
2018-07-08T17:30:02.933Z,2.40
2018-07-08T17:33:06.082Z,2.40
2018-07-08T17:36:09.481Z,2.50
2018-07-08T17:39:12.569Z,2.30
2018-07-08T17:42:15.480Z,2.60
2018-07-08T17:45:18.605Z,2.10
2018-07-08T17:48:21.693Z,2.60
2018-07-08T17:51:24.762Z,2.57
2018-07-08T17:54:27.961Z,2.83
2018-07-08T17:57:31.033Z,2.90
2018-07-08T18:00:34.099Z,3.00
2018-07-08T18:03:37.189Z,2.60
2018-07-08T18:06:40.266Z,2.37
2018-07-08T18:09:43.349Z,2.60
2018-07-08T18:12:46.433Z,2.30
2018-07-08T18:15:49.532Z,2.20
2018-07-08T18:18:52.613Z,2.43
2018-07-08T18:21:55.678Z,2.30
2018-07-08T18:24:59.105Z,2.10
2018-07-08T18:28:02.173Z,2.00
2018-07-08T18:31:05.316Z,2.10
2018-07-08T18:34:08.433Z,2.40
2018-07-08T18:37:11.280Z,3.00
2018-07-08T18:40:14.677Z,2.50
2018-07-08T18:43:17.776Z,2.83
2018-07-08T18:46:20.901Z,2.13
2018-07-08T18:49:23.975Z,5.17
2018-07-08T18:52:27.029Z,2.60
2018-07-08T18:55:30.145Z,2.20
2018-07-08T18:58:33.236Z,2.40
2018-07-08T19:01:36.293Z,2.50
2018-07-08T19:04:39.393Z,2.57
2018-07-08T19:07:42.466Z,2.03
2018-07-08T19:10:45.922Z,2.10
2018-07-08T19:13:48.993Z,1.90
2018-07-08T19:16:52.110Z,2.33
2018-07-08T19:19:55.169Z,2.90
2018-07-08T19:22:58.301Z,2.83
2018-07-08T19:26:01.365Z,3.10
2018-07-08T19:29:04.462Z,2.27
2018-07-08T19:32:07.581Z,2.40
2018-07-08T19:35:10.460Z,1.97
2018-07-08T19:38:13.558Z,2.47
2018-07-08T19:41:16.761Z,2.13
2018-07-08T19:44:19.975Z,2.20
2018-07-08T19:47:23.408Z,3.00
2018-07-08T19:50:33.248Z,2.40
2018-07-08T19:53:36.518Z,2.10
2018-07-08T19:56:39.975Z,3.13
2018-07-08T19:59:43.185Z,4.03
2018-07-08T20:02:46.189Z,2.40
2018-07-08T20:05:49.462Z,2.13
2018-07-08T20:08:52.971Z,2.03
2018-07-08T20:11:55.914Z,4.93
2018-07-08T20:14:59.150Z,2.00
2018-07-08T20:18:02.503Z,2.27
2018-07-08T20:21:07.181Z,2.20
2018-07-08T20:24:10.435Z,2.80
2018-07-08T20:27:13.722Z,2.60
2018-07-08T20:30:16.935Z,2.50
2018-07-08T20:33:20.106Z,2.63
2018-07-08T20:36:42.579Z,2.13
2018-07-08T20:39:45.858Z,1.97
2018-07-08T20:42:49.054Z,1.87
2018-07-08T20:45:52.310Z,2.10
2018-07-08T20:48:55.500Z,1.90
2018-07-08T20:51:59.754Z,1.97
2018-07-08T20:55:02.917Z,2.20
2018-07-08T20:58:06.146Z,2.30
2018-07-08T21:01:09.343Z,2.27
2018-07-08T21:04:12.842Z,2.10
2018-07-08T21:07:16.014Z,2.23
2018-07-08T21:10:19.375Z,2.33
2018-07-08T21:13:22.356Z,2.10
2018-07-08T21:16:25.577Z,2.60
2018-07-08T21:19:28.790Z,2.17
2018-07-08T21:22:31.975Z,2.10
2018-07-08T21:25:35.500Z,1.87
2018-07-08T21:28:38.937Z,2.00
2018-07-08T21:31:42.081Z,1.80
2018-07-08T21:34:45.300Z,1.70
2018-07-08T21:37:48.522Z,2.97
2018-07-08T21:40:51.555Z,2.10
2018-07-08T21:43:54.782Z,1.70
2018-07-08T21:46:58.577Z,1.97
2018-07-08T21:50:01.839Z,1.50
2018-07-08T21:53:05.368Z,1.83
2018-07-08T21:56:08.668Z,1.60
2018-07-08T21:59:15.302Z,1.80
2018-07-08T22:02:19.541Z,1.63
2018-07-08T22:05:22.742Z,2.07
2018-07-08T22:08:31.298Z,1.77
2018-07-08T22:11:34.521Z,2.23
2018-07-08T22:14:37.498Z,1.90
2018-07-08T22:17:40.778Z,1.80
2018-07-08T22:20:44.074Z,1.70
2018-07-08T22:23:47.343Z,1.93
2018-07-08T22:26:50.634Z,1.90
2018-07-08T22:29:53.930Z,2.03
2018-07-08T22:32:57.171Z,1.93
2018-07-08T22:36:00.451Z,1.87
2018-07-08T22:39:04.825Z,1.73
2018-07-08T22:42:08.074Z,1.80
2018-07-08T22:45:11.381Z,1.90
2018-07-08T22:48:14.621Z,1.80
2018-07-08T22:51:17.883Z,2.00
2018-07-08T22:54:21.113Z,2.20
2018-07-08T22:57:24.474Z,1.70
2018-07-08T23:00:33.122Z,2.20
2018-07-08T23:03:42.898Z,2.20
2018-07-08T23:06:46.090Z,1.90
2018-07-08T23:09:49.344Z,1.90
2018-07-08T23:12:52.337Z,1.93
2018-07-08T23:15:55.579Z,2.23
2018-07-08T23:18:58.811Z,2.03
2018-07-08T23:22:01.771Z,1.70
2018-07-08T23:25:04.928Z,2.07
2018-07-08T23:28:08.147Z,1.80
2018-07-08T23:31:11.794Z,2.00
2018-07-08T23:34:14.762Z,2.30
2018-07-08T23:37:18.062Z,1.80
2018-07-08T23:40:21.366Z,2.10
2018-07-08T23:43:24.441Z,1.87
2018-07-08T23:46:27.624Z,2.07
2018-07-08T23:49:30.841Z,1.87
2018-07-08T23:52:33.802Z,1.87
2018-07-08T23:55:36.986Z,1.70
2018-07-08T23:58:40.238Z,1.97
